createdAt,value
2022-12-28T00:02:28.509Z,101219.94
2022-12-28T00:04:59.447Z,101211.53
2022-12-28T00:07:39.138Z,101209.94
2022-12-28T00:10:18.648Z,101209.94
2022-12-28T00:13:09.539Z,101206.72
2022-12-28T00:15:40.974Z,101211.34
2022-12-28T00:18:14.325Z,101205.81
2022-12-28T00:21:01.117Z,101190.09
2022-12-28T00:23:32.227Z,101157.88
2022-12-28T00:26:09.907Z,101188.75
2022-12-28T00:28:40.578Z,101184.97
2022-12-28T00:31:12.778Z,101179.78
2022-12-28T00:33:46.094Z,101168.31
2022-12-28T00:36:17.778Z,101169.41
2022-12-28T00:38:48.769Z,101166.50
2022-12-28T00:41:19.288Z,101164.75
2022-12-28T00:43:49.837Z,101157.94
2022-12-28T00:46:21.750Z,101156.19
2022-12-28T00:48:56.604Z,101160.44
2022-12-28T00:51:30.925Z,101145.13
2022-12-28T00:54:02.051Z,101136.56
2022-12-28T00:56:35.997Z,101131.78
2022-12-28T00:59:06.746Z,101124.31
2022-12-28T01:01:38.831Z,101108.03
2022-12-28T01:04:12.462Z,101108.41
2022-12-28T01:06:42.919Z,101109.16
2022-12-28T01:09:13.895Z,101093.13
2022-12-28T01:11:45.005Z,101091.47
2022-12-28T01:14:15.565Z,101090.63
2022-12-28T01:16:46.143Z,101085.63
2022-12-28T01:19:23.124Z,101078.13
2022-12-28T01:21:54.586Z,101074.22
2022-12-28T01:24:25.453Z,101075.31
2022-12-28T01:26:55.944Z,101073.88
2022-12-28T01:29:26.465Z,101072.09
2022-12-28T01:31:57.039Z,101062.84
2022-12-28T01:34:30.361Z,101064.81
2022-12-28T01:37:00.885Z,101064.66
2022-12-28T01:39:31.511Z,101054.66
2022-12-28T01:42:02.251Z,101051.44
2022-12-28T01:44:54.305Z,101046.84
2022-12-28T01:47:29.174Z,101041.28
2022-12-28T01:50:12.022Z,101016.13
2022-12-28T01:52:48.618Z,101009.16
2022-12-28T01:55:22.895Z,101016.16
2022-12-28T01:58:06.268Z,101002.41
2022-12-28T02:00:37.615Z,101001.72
2022-12-28T02:03:12.456Z,100992.94
2022-12-28T02:05:52.072Z,100988.50
2022-12-28T02:08:32.451Z,100970.47
2022-12-28T02:11:04.479Z,100986.69
2022-12-28T02:13:35.752Z,100982.44
2022-12-28T02:16:13.095Z,100954.06
2022-12-28T02:18:48.087Z,100977.97
2022-12-28T02:21:28.828Z,100971.75
2022-12-28T02:25:11.490Z,100973.00
2022-12-28T02:27:58.911Z,100964.81
2022-12-28T02:30:37.617Z,100966.63
2022-12-28T02:33:19.349Z,100953.56
2022-12-28T02:35:57.263Z,100948.97
2022-12-28T02:38:33.620Z,100931.06
2022-12-28T02:41:09.964Z,100954.13
2022-12-28T02:43:42.640Z,100943.03
2022-12-28T02:46:32.394Z,100928.06
2022-12-28T02:49:15.239Z,100913.81
2022-12-28T02:51:58.726Z,100925.94
2022-12-28T02:54:59.859Z,100913.59
2022-12-28T02:58:12.778Z,100912.75
2022-12-28T03:00:59.182Z,100910.56
2022-12-28T03:03:44.389Z,100916.13
2022-12-28T03:06:34.571Z,100900.22
2022-12-28T03:09:15.799Z,100906.47
2022-12-28T03:11:51.777Z,100901.28
2022-12-28T03:14:29.457Z,100898.22
2022-12-28T03:17:15.708Z,100887.53
2022-12-28T03:20:05.673Z,100877.72
2022-12-28T03:22:51.529Z,100873.97
2022-12-28T03:25:38.439Z,100868.97
2022-12-28T03:28:25.565Z,100867.38
2022-12-28T03:31:08.479Z,100858.81
2022-12-28T03:33:47.791Z,100862.03
2022-12-28T03:36:30.917Z,100857.72
2022-12-28T03:39:13.530Z,100840.59
2022-12-28T03:42:06.702Z,100844.16
2022-12-28T03:44:38.994Z,100840.06
2022-12-28T03:47:13.171Z,100817.94
2022-12-28T03:49:43.907Z,100831.66
2022-12-28T03:52:17.142Z,100824.19
2022-12-28T03:54:48.286Z,100817.41
2022-12-28T03:57:21.030Z,100800.28
2022-12-28T03:59:55.776Z,100760.91
2022-12-28T04:02:30.771Z,100793.50
2022-12-28T04:05:01.416Z,100780.50
2022-12-28T04:07:35.355Z,100777.84
2022-12-28T04:10:07.322Z,100769.44
2022-12-28T04:12:38.922Z,100760.16
2022-12-28T04:15:29.785Z,100747.13
2022-12-28T04:18:03.384Z,100739.81
2022-12-28T04:20:38.141Z,100735.16
2022-12-28T04:23:11.145Z,100732.84
2022-12-28T04:25:43.090Z,100716.56
2022-12-28T04:28:13.804Z,100701.25
2022-12-28T04:31:08.300Z,100692.13
2022-12-28T04:33:41.682Z,100697.28
2022-12-28T04:36:15.756Z,100694.59
2022-12-28T04:38:51.799Z,100691.91
2022-12-28T04:41:22.761Z,100643.00
2022-12-28T04:43:58.137Z,100686.97
2022-12-28T04:46:31.870Z,100663.22
2022-12-28T04:49:06.742Z,100656.47
2022-12-28T04:51:37.738Z,100672.88
2022-12-28T04:54:17.491Z,100666.94
2022-12-28T04:56:52.707Z,100666.72
2022-12-28T04:59:23.257Z,100658.31
2022-12-28T05:01:58.684Z,100663.81
2022-12-28T05:04:29.282Z,100649.16
2022-12-28T05:07:01.547Z,100658.75
2022-12-28T05:09:35.392Z,100628.81
2022-12-28T05:12:06.000Z,100636.78
2022-12-28T05:14:38.814Z,100606.34
2022-12-28T05:17:09.280Z,100626.22
2022-12-28T05:19:40.002Z,100629.38
2022-12-28T05:22:12.153Z,100626.81
2022-12-28T05:24:45.447Z,100626.78
2022-12-28T05:27:19.677Z,100625.66
2022-12-28T05:29:53.572Z,100618.16
2022-12-28T05:32:25.759Z,100622.41
2022-12-28T05:34:59.822Z,100609.19
2022-12-28T05:37:30.489Z,100616.88
2022-12-28T05:40:07.959Z,100616.88
2022-12-28T05:42:49.596Z,100607.75
2022-12-28T05:45:23.694Z,100604.91
2022-12-28T05:47:57.726Z,100616.69
2022-12-28T05:50:28.344Z,100587.19
2022-12-28T05:53:03.565Z,100607.09
2022-12-28T05:55:36.948Z,100601.94
2022-12-28T05:58:10.553Z,100605.88
2022-12-28T06:00:48.595Z,100606.41
2022-12-28T06:03:19.369Z,100595.38
2022-12-28T06:05:50.573Z,100591.81
2022-12-28T06:08:23.531Z,100587.00
2022-12-28T06:10:56.600Z,100576.81
2022-12-28T06:13:27.668Z,100588.44
2022-12-28T06:16:07.857Z,100588.59
2022-12-28T06:18:39.611Z,100574.50
2022-12-28T06:21:13.105Z,100537.00
2022-12-28T06:23:44.155Z,100572.53
2022-12-28T06:26:19.611Z,100563.59
2022-12-28T06:28:51.425Z,100562.53
2022-12-28T06:31:24.497Z,100551.50
2022-12-28T06:33:57.530Z,100551.50
2022-12-28T06:36:30.458Z,100544.00
2022-12-28T06:39:04.974Z,100542.63
2022-12-28T06:41:38.726Z,100539.88
2022-12-28T06:44:10.218Z,100536.22
2022-12-28T06:46:41.972Z,100552.19
2022-12-28T06:49:12.765Z,100547.94
2022-12-28T06:51:43.287Z,100534.38
2022-12-28T06:54:14.072Z,100541.34
2022-12-28T06:56:48.281Z,100540.59
2022-12-28T06:59:18.689Z,100542.19
2022-12-28T07:01:52.816Z,100556.25
2022-12-28T07:04:23.050Z,100554.66
2022-12-28T07:06:53.419Z,100565.72
2022-12-28T07:09:28.103Z,100548.22
2022-12-28T07:12:01.180Z,100545.72
2022-12-28T07:14:37.883Z,100537.84
2022-12-28T07:17:08.360Z,100535.19
2022-12-28T07:19:38.835Z,100533.59
2022-12-28T07:22:09.256Z,100528.59
2022-12-28T07:24:39.954Z,100534.06
2022-12-28T07:27:13.065Z,100531.75
2022-12-28T07:29:46.624Z,100526.16
2022-12-28T07:32:17.357Z,100523.13
2022-12-28T07:34:47.877Z,100522.22
2022-12-28T07:37:21.811Z,100512.72
2022-12-28T07:39:52.211Z,100520.22
2022-12-28T07:42:25.419Z,100522.19
2022-12-28T07:44:55.860Z,100519.81
2022-12-28T07:47:28.726Z,100532.09
2022-12-28T07:49:59.903Z,100519.66
2022-12-28T07:52:39.861Z,100531.06
2022-12-28T07:55:11.363Z,100529.75
2022-12-28T07:57:46.676Z,100523.31
2022-12-28T08:00:18.653Z,100521.09
2022-12-28T08:02:49.448Z,100521.44
2022-12-28T08:05:20.289Z,100520.84
2022-12-28T08:07:50.912Z,100532.97
2022-12-28T08:10:21.464Z,100513.34
2022-12-28T08:12:55.446Z,100528.47
2022-12-28T08:15:26.086Z,100522.88
2022-12-28T08:17:57.089Z,100522.31
2022-12-28T08:20:27.811Z,100529.25
2022-12-28T08:22:58.657Z,100525.31
2022-12-28T08:25:32.761Z,100522.22
2022-12-28T08:28:05.885Z,100518.84
2022-12-28T08:30:44.210Z,100523.25
2022-12-28T08:33:15.062Z,100520.94
2022-12-28T08:35:45.873Z,100520.94
2022-12-28T08:38:16.424Z,100525.03
2022-12-28T08:40:47.077Z,100527.84
2022-12-28T08:43:20.293Z,100532.00
2022-12-28T08:45:59.969Z,100529.81
2022-12-28T08:48:33.748Z,100530.84
2022-12-28T08:51:06.165Z,100531.91
2022-12-28T08:53:37.304Z,100521.31
2022-12-28T08:56:13.240Z,100519.84
2022-12-28T08:58:47.453Z,100520.72
2022-12-28T09:01:18.988Z,100520.00
2022-12-28T09:03:51.704Z,100526.78
2022-12-28T09:06:23.825Z,100531.22
2022-12-28T09:09:05.567Z,100532.69
2022-12-28T09:11:38.699Z,100531.09
2022-12-28T09:14:20.715Z,100513.00
2022-12-28T09:16:55.797Z,100546.09
2022-12-28T09:19:30.416Z,100532.28
2022-12-28T09:22:01.114Z,100527.28
2022-12-28T09:24:31.717Z,100528.47
2022-12-28T09:27:03.051Z,100523.75
2022-12-28T09:29:36.200Z,100526.44
2022-12-28T09:32:06.617Z,100525.16
2022-12-28T09:34:38.341Z,100522.78
2022-12-28T09:37:10.135Z,100528.50
2022-12-28T09:39:40.667Z,100532.41
2022-12-28T09:42:21.683Z,100541.81
2022-12-28T09:45:01.746Z,100533.19
2022-12-28T09:47:40.602Z,100538.22
2022-12-28T09:50:30.220Z,100532.38
2022-12-28T09:53:19.915Z,100523.88
2022-12-28T09:56:00.184Z,100534.06
2022-12-28T09:58:32.505Z,100522.25
2022-12-28T10:01:08.262Z,100512.34
2022-12-28T10:03:41.419Z,100524.66
2022-12-28T10:06:16.033Z,100531.56
2022-12-28T10:08:50.267Z,100521.16
2022-12-28T10:11:25.557Z,100522.34
2022-12-28T10:13:59.354Z,100511.03
2022-12-28T10:16:36.760Z,100508.84
2022-12-28T10:19:11.194Z,100509.13
2022-12-28T10:21:41.867Z,100504.44
2022-12-28T10:24:33.225Z,100500.56
2022-12-28T10:27:08.112Z,100512.56
2022-12-28T10:29:38.803Z,100506.53
2022-12-28T10:32:12.760Z,100502.69
2022-12-28T10:34:57.279Z,100475.53
2022-12-28T10:37:30.295Z,100501.69
2022-12-28T10:40:03.817Z,100497.56
2022-12-28T10:42:40.239Z,100490.00
2022-12-28T10:45:20.304Z,100495.06
2022-12-28T10:47:55.593Z,100493.41
2022-12-28T10:50:43.108Z,100491.25
2022-12-28T10:53:30.014Z,100490.47
2022-12-28T10:56:10.308Z,100478.69
2022-12-28T10:58:41.319Z,100467.00
2022-12-28T11:01:20.915Z,100477.38
2022-12-28T11:04:06.031Z,100471.59
2022-12-28T11:06:37.999Z,100474.72
2022-12-28T11:09:17.744Z,100471.16
2022-12-28T11:11:51.084Z,100472.03
2022-12-28T11:14:33.387Z,100474.25
2022-12-28T11:17:25.617Z,100469.38
2022-12-28T11:20:05.813Z,100469.97
2022-12-28T11:22:37.187Z,100471.44
2022-12-28T11:25:11.273Z,100474.69
2022-12-28T11:27:49.961Z,100464.66
2022-12-28T11:30:22.495Z,100471.13
2022-12-28T11:32:56.030Z,100455.94
2022-12-28T11:35:32.063Z,100437.78
2022-12-28T11:38:05.603Z,100478.22
2022-12-28T11:40:55.319Z,100462.13
2022-12-28T11:43:43.527Z,100453.91
2022-12-28T11:46:45.031Z,100453.16
2022-12-28T11:49:31.129Z,100446.50
2022-12-28T11:52:46.887Z,100447.56
2022-12-28T11:56:04.823Z,100436.63
2022-12-28T11:59:22.411Z,100441.50
2022-12-28T12:01:54.970Z,100437.19
2022-12-28T12:04:34.821Z,100430.72
2022-12-28T12:07:40.700Z,100437.66
2022-12-28T12:10:39.027Z,100436.03
2022-12-28T12:13:45.339Z,100431.75
2022-12-28T12:16:27.380Z,100429.09
2022-12-28T12:19:00.322Z,100424.84
2022-12-28T12:21:39.097Z,100423.66
2022-12-28T12:24:27.075Z,100425.41
2022-12-28T12:27:01.417Z,100426.00
2022-12-28T12:29:39.729Z,100419.22
2022-12-28T12:32:24.316Z,100415.22
2022-12-28T12:34:59.229Z,100404.31
2022-12-28T12:37:48.757Z,100420.38
2022-12-28T12:40:48.695Z,100413.31
2022-12-28T12:43:34.871Z,100419.66
2022-12-28T12:46:40.952Z,100414.34
2022-12-28T12:49:46.506Z,100418.47
2022-12-28T12:52:25.226Z,100413.59
2022-12-28T12:55:09.933Z,100400.00
2022-12-28T12:57:53.767Z,100401.22
2022-12-28T13:00:25.488Z,100395.16
2022-12-28T13:03:12.943Z,100396.63
2022-12-28T13:05:52.513Z,100389.97
2022-12-28T13:08:27.080Z,100387.63
2022-12-28T13:10:59.000Z,100385.53
2022-12-28T13:13:36.548Z,100384.38
2022-12-28T13:16:18.468Z,100387.31
2022-12-28T13:19:00.429Z,100378.47
2022-12-28T13:21:43.204Z,100380.41
2022-12-28T13:24:23.225Z,100379.69
2022-12-28T13:26:57.769Z,100360.50
2022-12-28T13:29:31.361Z,100366.38
2022-12-28T13:32:05.195Z,100365.81
2022-12-28T13:34:37.749Z,100356.81
2022-12-28T13:37:18.732Z,100362.25
2022-12-28T13:39:49.758Z,100361.94
2022-12-28T13:42:30.064Z,100363.16
2022-12-28T13:45:04.318Z,100358.16
2022-12-28T13:47:36.142Z,100356.63
2022-12-28T13:50:11.076Z,100361.97
2022-12-28T13:52:50.422Z,100350.44
2022-12-28T13:55:25.251Z,100359.00
2022-12-28T13:58:00.633Z,100350.72
2022-12-28T14:00:33.243Z,100357.69
2022-12-28T14:03:04.237Z,100357.09
2022-12-28T14:05:34.819Z,100333.03
2022-12-28T14:08:09.080Z,100350.72
2022-12-28T14:10:40.149Z,100351.59
2022-12-28T14:13:12.499Z,100344.06
2022-12-28T14:15:43.699Z,100348.38
2022-12-28T14:18:17.652Z,100342.59
2022-12-28T14:20:51.596Z,100344.38
2022-12-28T14:23:26.006Z,100342.75
2022-12-28T14:25:57.241Z,100345.28
2022-12-28T14:28:39.434Z,100344.38
2022-12-28T14:31:12.327Z,100350.44
2022-12-28T14:33:53.799Z,100342.13
2022-12-28T14:36:27.417Z,100336.25
2022-12-28T14:39:05.291Z,100347.16
2022-12-28T14:41:40.595Z,100352.31
2022-12-28T14:44:36.525Z,100343.31
2022-12-28T14:47:40.081Z,100340.97
2022-12-28T14:50:21.873Z,100333.13
2022-12-28T14:52:53.698Z,100337.72
2022-12-28T14:55:34.333Z,100328.69
2022-12-28T14:58:15.507Z,100331.47
2022-12-28T15:00:59.508Z,100328.25
2022-12-28T15:03:32.296Z,100323.69
2022-12-28T15:06:03.429Z,100325.72
2022-12-28T15:12:16.123Z,100317.75
2022-12-28T15:14:49.334Z,100287.69
2022-12-28T15:17:20.577Z,100319.81
2022-12-28T15:19:51.413Z,100316.53
2022-12-28T15:22:22.095Z,100317.56
2022-12-28T15:24:53.111Z,100323.91
2022-12-28T15:27:26.854Z,100312.84
2022-12-28T15:30:08.252Z,100327.00
2022-12-28T15:32:40.921Z,100316.94
2022-12-28T15:35:12.519Z,100323.00
2022-12-28T15:37:43.152Z,100317.84
2022-12-28T15:40:14.519Z,100306.91
2022-12-28T15:42:49.753Z,100315.19
2022-12-28T15:45:20.702Z,100313.41
2022-12-28T15:47:51.333Z,100296.28
2022-12-28T15:50:21.876Z,100294.66
2022-12-28T15:52:52.635Z,100254.13
2022-12-28T15:55:23.141Z,100292.59
2022-12-28T15:57:59.168Z,100293.22
2022-12-28T16:00:33.272Z,100291.56
2022-12-28T16:03:11.085Z,100295.72
2022-12-28T16:05:41.703Z,100288.66
2022-12-28T16:08:12.669Z,100280.38
2022-12-28T16:10:43.218Z,100290.53
2022-12-28T16:13:16.714Z,100288.19
2022-12-28T16:15:47.214Z,100287.16
2022-12-28T16:18:17.646Z,100297.03
2022-12-28T16:20:48.229Z,100291.88
2022-12-28T16:23:18.852Z,100292.78
2022-12-28T16:25:53.016Z,100284.34
2022-12-28T16:28:26.364Z,100278.31
2022-12-28T16:30:57.503Z,100264.19
2022-12-28T16:33:28.620Z,100276.13
2022-12-28T16:36:00.012Z,100265.94
2022-12-28T16:38:31.708Z,100256.66
2022-12-28T16:41:04.064Z,100258.84
2022-12-28T16:43:37.186Z,100253.84
2022-12-28T16:46:11.620Z,100244.38
2022-12-28T16:48:42.241Z,100238.38
2022-12-28T16:51:12.966Z,100231.69
2022-12-28T16:53:43.458Z,100237.88
2022-12-28T16:56:14.307Z,100218.81
2022-12-28T16:58:49.509Z,100228.53
2022-12-28T17:01:20.424Z,100222.81
2022-12-28T17:03:50.993Z,100212.75
2022-12-28T17:06:21.694Z,100204.19
2022-12-28T17:08:55.189Z,100208.06
2022-12-28T17:11:28.972Z,100209.69
2022-12-28T17:14:06.006Z,100198.59
2022-12-28T17:16:38.519Z,100210.44
2022-12-28T17:19:09.448Z,100195.22
2022-12-28T17:21:40.006Z,100194.34
2022-12-28T17:24:10.565Z,100191.72
2022-12-28T17:26:41.124Z,100184.97
2022-12-28T17:29:14.149Z,100184.19
2022-12-28T17:31:48.094Z,100174.03
2022-12-28T17:34:18.979Z,100184.50
2022-12-28T17:36:49.686Z,100172.41
2022-12-28T17:39:21.256Z,100177.56
2022-12-28T17:41:52.237Z,100164.13
2022-12-28T17:44:25.604Z,100165.78
2022-12-28T17:46:56.266Z,100158.41
2022-12-28T17:49:27.085Z,100155.28
2022-12-28T17:51:57.682Z,100152.03
2022-12-28T17:54:28.594Z,100140.25
2022-12-28T17:56:59.067Z,100142.88
2022-12-28T17:59:32.620Z,100134.47
2022-12-28T18:02:05.293Z,100126.66
2022-12-28T18:04:35.933Z,100122.81
2022-12-28T18:07:06.594Z,100119.53
2022-12-28T18:09:37.101Z,100112.00
2022-12-28T18:12:08.339Z,100115.41
2022-12-28T18:14:41.928Z,100098.91
2022-12-28T18:17:12.747Z,100104.47
2022-12-28T18:19:43.690Z,100088.84
2022-12-28T18:22:14.628Z,100083.06
2022-12-28T18:24:45.137Z,100080.16
2022-12-28T18:27:15.776Z,100079.94
2022-12-28T18:29:49.409Z,100035.19
2022-12-28T18:32:19.898Z,100063.25
2022-12-28T18:34:51.121Z,100062.50
2022-12-28T18:37:21.765Z,100063.25
2022-12-28T18:39:52.618Z,100059.72
2022-12-28T18:42:25.309Z,100072.28
2022-12-28T18:44:58.571Z,100056.06
2022-12-28T18:47:32.986Z,100057.81
2022-12-28T18:50:03.326Z,100058.44
2022-12-28T18:52:36.134Z,100045.91
2022-12-28T18:55:12.837Z,100044.53
2022-12-28T18:57:52.807Z,100035.69
2022-12-28T19:00:26.020Z,100023.91
2022-12-28T19:02:56.520Z,100019.78
2022-12-28T19:05:27.782Z,100024.03
2022-12-28T19:07:58.235Z,100013.53
2022-12-28T19:10:28.635Z,100008.53
2022-12-28T19:12:59.649Z,100006.00
2022-12-28T19:15:32.898Z,99985.13
2022-12-28T19:18:03.717Z,99991.75
2022-12-28T19:20:34.305Z,99995.84
2022-12-28T19:23:04.709Z,100002.13
2022-12-28T19:25:35.148Z,100003.28
2022-12-28T19:28:05.941Z,99999.44
2022-12-28T19:30:39.100Z,99995.91
2022-12-28T19:33:12.041Z,99981.03
2022-12-28T19:35:43.927Z,99978.28
2022-12-28T19:38:18.215Z,99990.22
2022-12-28T19:40:51.699Z,99985.03
2022-12-28T19:43:22.257Z,99983.41
2022-12-28T19:45:55.569Z,99990.06
2022-12-28T19:48:26.289Z,99991.59
2022-12-28T19:50:56.758Z,99983.75
2022-12-28T19:53:27.784Z,99977.84
2022-12-28T19:56:01.900Z,99986.81
2022-12-28T19:58:32.408Z,99988.56
2022-12-28T20:01:12.933Z,99972.66
2022-12-28T20:03:44.283Z,99964.66
2022-12-28T20:06:18.166Z,99968.91
2022-12-28T20:08:51.441Z,99955.22
2022-12-28T20:11:25.338Z,99957.97
2022-12-28T20:13:58.076Z,99956.09
2022-12-28T20:16:35.437Z,99937.84
2022-12-28T20:19:08.339Z,99934.84
2022-12-28T20:21:40.063Z,99939.00
2022-12-28T20:24:11.510Z,99940.16
2022-12-28T20:26:42.588Z,99934.84
2022-12-28T20:29:16.488Z,99922.28
2022-12-28T20:31:52.153Z,99917.78
2022-12-28T20:34:24.261Z,99908.47
2022-12-28T20:36:57.282Z,99909.81
2022-12-28T20:39:28.078Z,99902.16
2022-12-28T20:42:10.936Z,99891.59
2022-12-28T20:44:41.956Z,99886.97
2022-12-28T20:47:18.009Z,99881.56
2022-12-28T20:49:48.548Z,99879.16
2022-12-28T20:52:19.341Z,99871.09
2022-12-28T20:54:50.147Z,99876.53
2022-12-28T20:57:20.703Z,99874.75
2022-12-28T20:59:52.282Z,99856.53
2022-12-28T21:02:26.262Z,99860.22
2022-12-28T21:04:57.064Z,99851.91
2022-12-28T21:07:28.302Z,99848.25
2022-12-28T21:09:59.230Z,99832.91
2022-12-28T21:12:30.270Z,99841.34
2022-12-28T21:15:01.328Z,99840.59
2022-12-28T21:17:37.141Z,99825.56
2022-12-28T21:20:10.171Z,99814.97
2022-12-28T21:22:41.300Z,99821.13
2022-12-28T21:25:13.088Z,99817.00
2022-12-28T21:27:43.886Z,99822.75
2022-12-28T21:30:17.414Z,99779.94
2022-12-28T21:32:54.141Z,99801.97
2022-12-28T21:35:27.748Z,99798.69
2022-12-28T21:38:01.167Z,99786.63
2022-12-28T21:40:31.807Z,99769.03
2022-12-28T21:43:02.594Z,99775.38
2022-12-28T21:45:33.401Z,99790.25
2022-12-28T21:48:07.687Z,99783.25
2022-12-28T21:50:37.914Z,99777.34
2022-12-28T21:53:10.337Z,99789.75
2022-12-28T21:55:45.279Z,99759.78
2022-12-28T21:58:19.998Z,99769.22
2022-12-28T22:01:03.341Z,99764.03
2022-12-28T22:03:49.946Z,99775.38
2022-12-28T22:06:23.552Z,99750.63
2022-12-28T22:09:06.955Z,99765.59
2022-12-28T22:11:50.954Z,99744.72
2022-12-28T22:14:24.500Z,99765.88
2022-12-28T22:16:55.329Z,99751.66
2022-12-28T22:19:29.096Z,99752.56
2022-12-28T22:22:02.980Z,99735.41
2022-12-28T22:24:37.389Z,99745.69
2022-12-28T22:27:08.104Z,99747.41
2022-12-28T22:29:38.952Z,99736.78
2022-12-28T22:32:09.495Z,99749.31
2022-12-28T22:34:43.081Z,99745.19
2022-12-28T22:37:14.117Z,99728.47
2022-12-28T22:39:44.875Z,99737.66
2022-12-28T22:42:15.684Z,99745.31
2022-12-28T22:44:47.328Z,99749.44
2022-12-28T22:47:18.261Z,99735.03
2022-12-28T22:49:52.177Z,99742.06
2022-12-28T22:52:22.861Z,99727.97
2022-12-28T22:54:56.462Z,99742.06
2022-12-28T22:57:27.360Z,99735.28
2022-12-28T22:59:58.005Z,99744.69
2022-12-28T23:02:28.660Z,99740.56
2022-12-28T23:05:01.717Z,99742.06
2022-12-28T23:07:32.552Z,99735.03
2022-12-28T23:10:03.195Z,99730.09
2022-12-28T23:12:34.150Z,99714.34
2022-12-28T23:15:17.636Z,99730.72
2022-12-28T23:17:48.557Z,99691.53
2022-12-28T23:20:36.591Z,99724.19
2022-12-28T23:23:21.641Z,99725.34
2022-12-28T23:26:12.711Z,99722.19
2022-12-28T23:28:45.098Z,99721.47
2022-12-28T23:31:17.010Z,99725.00
2022-12-28T23:33:48.979Z,99713.94
2022-12-28T23:36:25.531Z,99709.28
2022-12-28T23:38:57.600Z,99705.28
2022-12-28T23:41:41.706Z,99706.56
2022-12-28T23:44:16.428Z,99708.59
2022-12-28T23:46:50.298Z,99701.06
2022-12-28T23:49:24.999Z,99711.47
2022-12-28T23:51:59.324Z,99719.25
2022-12-28T23:54:31.059Z,99710.22
2022-12-28T23:57:05.458Z,99689.13
2022-12-28T23:59:36.595Z,99702.69
